createdAt,value
2023-02-24T00:02:49.157Z,16.88
2023-02-24T00:05:51.827Z,16.45
2023-02-24T00:08:54.367Z,18.20
2023-02-24T00:12:05.081Z,20.00
2023-02-24T00:15:10.868Z,20.75
2023-02-24T00:18:16.953Z,20.50
2023-02-24T00:21:22.776Z,17.70
2023-02-24T00:24:26.400Z,17.90
2023-02-24T00:27:29.028Z,15.13
2023-02-24T00:30:33.288Z,15.48
2023-02-24T00:33:35.843Z,18.23
2023-02-24T00:36:41.992Z,15.65
2023-02-24T00:39:46.197Z,17.63
2023-02-24T00:42:54.891Z,20.20
2023-02-24T00:46:02.733Z,17.92
2023-02-24T00:49:07.785Z,16.60
2023-02-24T00:52:18.367Z,17.27
2023-02-24T00:55:23.393Z,75.67
2023-02-24T00:58:30.107Z,25.27
2023-02-24T01:01:33.826Z,20.02
2023-02-24T01:04:38.888Z,27.90
2023-02-24T01:07:52.213Z,41.63
2023-02-24T01:11:18.237Z,23.40
2023-02-24T01:14:26.163Z,19.53
2023-02-24T01:17:28.911Z,18.08
2023-02-24T01:20:36.427Z,19.95
2023-02-24T01:23:42.602Z,19.33
2023-02-24T01:26:45.239Z,19.20
2023-02-24T01:29:48.762Z,18.10
2023-02-24T01:32:51.572Z,16.80
2023-02-24T01:35:55.587Z,17.67
2023-02-24T01:39:12.833Z,19.23
2023-02-24T01:42:21.301Z,20.07
2023-02-24T01:45:29.124Z,17.73
2023-02-24T01:48:32.503Z,20.98
2023-02-24T01:51:39.920Z,17.85
2023-02-24T01:54:50.449Z,17.13
2023-02-24T01:57:54.131Z,18.70
2023-02-24T02:00:58.000Z,20.10
2023-02-24T02:04:05.646Z,17.75
2023-02-24T02:07:12.945Z,20.08
2023-02-24T02:10:15.632Z,17.70
2023-02-24T02:13:21.750Z,18.20
2023-02-24T02:16:30.913Z,17.17
2023-02-24T02:20:18.108Z,21.80
2023-02-24T02:23:50.634Z,20.75
2023-02-24T02:27:13.689Z,22.55
2023-02-24T02:30:28.454Z,22.03
2023-02-24T02:34:05.656Z,21.93
2023-02-24T02:37:12.239Z,22.80
2023-02-24T02:40:41.432Z,19.13
2023-02-24T02:43:54.363Z,19.30
2023-02-24T02:47:04.026Z,20.93
2023-02-24T02:50:24.433Z,20.13
2023-02-24T02:53:31.654Z,20.42
2023-02-24T02:56:42.570Z,21.65
2023-02-24T02:59:51.552Z,19.20
2023-02-24T03:02:58.484Z,16.93
2023-02-24T03:06:08.151Z,19.33
2023-02-24T03:09:22.621Z,21.10
2023-02-24T03:12:31.153Z,20.35
2023-02-24T03:15:34.553Z,22.48
2023-02-24T03:18:53.191Z,19.77
2023-02-24T03:22:12.454Z,23.87
2023-02-24T03:25:16.985Z,21.48
2023-02-24T03:28:43.137Z,25.00
2023-02-24T03:31:51.212Z,22.05
2023-02-24T03:35:11.952Z,23.27
2023-02-24T03:38:14.795Z,21.73
2023-02-24T03:41:17.732Z,20.67
2023-02-24T03:44:20.379Z,21.20
2023-02-24T03:47:23.041Z,24.50
2023-02-24T03:50:30.407Z,19.97
2023-02-24T03:53:48.687Z,27.60
2023-02-24T03:57:25.097Z,24.95
2023-02-24T04:00:40.875Z,22.60
2023-02-24T04:04:06.140Z,22.70
2023-02-24T04:07:53.009Z,19.97
2023-02-24T04:11:05.812Z,20.13
2023-02-24T04:14:14.223Z,21.23
2023-02-24T04:17:28.104Z,21.35
2023-02-24T04:20:35.578Z,23.42
2023-02-24T04:23:45.990Z,23.57
2023-02-24T04:26:50.076Z,27.07
2023-02-24T04:29:55.629Z,21.98
2023-02-24T04:33:04.790Z,21.90
2023-02-24T04:36:09.219Z,19.95
2023-02-24T04:39:16.477Z,20.93
2023-02-24T04:42:20.150Z,24.30
2023-02-24T04:45:25.968Z,23.33
2023-02-24T04:48:30.313Z,17.95
2023-02-24T04:51:34.154Z,23.95
2023-02-24T04:54:36.745Z,31.67
2023-02-24T04:57:39.394Z,25.67
2023-02-24T05:00:44.019Z,22.05
2023-02-24T05:03:49.610Z,21.58
2023-02-24T05:06:52.263Z,21.15
2023-02-24T05:09:55.119Z,22.27
2023-02-24T05:13:06.740Z,26.60
2023-02-24T05:16:12.972Z,26.50
2023-02-24T05:19:37.732Z,20.88
2023-02-24T05:22:43.229Z,30.40
2023-02-24T05:25:48.747Z,31.97
2023-02-24T05:28:56.711Z,34.87
2023-02-24T05:32:00.173Z,25.85
2023-02-24T05:35:03.591Z,27.25
2023-02-24T05:38:08.369Z,28.08
2023-02-24T05:41:19.881Z,26.43
2023-02-24T05:44:28.170Z,27.17
2023-02-24T05:47:34.888Z,46.03
2023-02-24T05:50:39.168Z,41.65
2023-02-24T05:53:41.877Z,30.85
2023-02-24T05:56:44.534Z,22.17
2023-02-24T05:59:49.547Z,30.23
2023-02-24T06:02:54.994Z,29.98
2023-02-24T06:06:09.037Z,28.80
2023-02-24T06:09:13.269Z,26.92
2023-02-24T06:12:17.029Z,27.80
2023-02-24T06:15:19.635Z,27.50
2023-02-24T06:18:22.356Z,28.27
2023-02-24T06:21:29.372Z,36.30
2023-02-24T06:24:33.495Z,38.05
2023-02-24T06:27:39.328Z,42.90
2023-02-24T06:30:42.042Z,55.97
2023-02-24T06:33:45.198Z,44.72
2023-02-24T06:36:50.424Z,41.30
2023-02-24T06:39:53.224Z,43.47
2023-02-24T06:42:55.908Z,37.03
2023-02-24T06:46:02.097Z,36.17
2023-02-24T06:49:07.664Z,37.67
2023-02-24T06:52:11.943Z,65.35
2023-02-24T06:55:25.634Z,60.63
2023-02-24T06:58:32.256Z,41.47
2023-02-24T07:01:35.027Z,37.07
2023-02-24T07:04:44.206Z,47.08
2023-02-24T07:10:56.478Z,32.15
2023-02-24T07:13:59.523Z,31.53
2023-02-24T07:17:02.092Z,33.60
2023-02-24T07:20:12.323Z,32.65
2023-02-24T07:23:16.472Z,29.70
2023-02-24T07:26:24.605Z,36.03
2023-02-24T07:29:28.968Z,35.67
2023-02-24T07:32:32.835Z,32.40
2023-02-24T07:35:41.533Z,36.47
2023-02-24T07:38:49.899Z,31.17
2023-02-24T07:41:59.428Z,30.13
2023-02-24T07:45:03.162Z,35.20
2023-02-24T07:48:05.803Z,39.27
2023-02-24T07:51:14.884Z,37.40
2023-02-24T07:54:17.882Z,41.42
2023-02-24T07:57:20.817Z,39.65
2023-02-24T08:00:28.386Z,35.40
2023-02-24T08:03:31.140Z,39.37
2023-02-24T08:06:39.695Z,40.75
2023-02-24T08:09:45.459Z,37.28
2023-02-24T08:12:48.402Z,32.45
2023-02-24T08:15:56.620Z,35.50
2023-02-24T08:19:02.322Z,34.97
2023-02-24T08:22:26.956Z,38.28
2023-02-24T08:25:36.336Z,36.13
2023-02-24T08:28:42.611Z,38.00
2023-02-24T08:31:45.875Z,39.27
2023-02-24T08:34:49.736Z,45.03
2023-02-24T08:37:57.861Z,35.17
2023-02-24T08:41:05.246Z,32.83
2023-02-24T08:44:10.348Z,32.08
2023-02-24T08:47:14.205Z,34.67
2023-02-24T08:50:16.929Z,41.23
2023-02-24T08:53:19.562Z,38.75
2023-02-24T08:56:25.321Z,38.00
2023-02-24T08:59:38.449Z,39.70
2023-02-24T09:02:43.616Z,40.43
2023-02-24T09:05:46.340Z,35.57
2023-02-24T09:08:49.366Z,35.63
2023-02-24T09:11:57.809Z,41.58
2023-02-24T09:15:04.855Z,36.17
2023-02-24T09:18:10.379Z,37.73
2023-02-24T09:21:36.906Z,34.97
2023-02-24T09:24:39.594Z,39.72
2023-02-24T09:27:42.572Z,36.85
2023-02-24T09:30:53.800Z,38.65
2023-02-24T09:33:57.320Z,37.00
2023-02-24T09:37:06.041Z,41.03
2023-02-24T09:40:16.078Z,40.75
2023-02-24T09:43:21.245Z,36.25
2023-02-24T09:46:24.219Z,40.42
2023-02-24T09:49:56.340Z,44.07
2023-02-24T09:53:14.110Z,38.63
2023-02-24T09:56:32.849Z,40.13
2023-02-24T10:00:24.594Z,39.17
2023-02-24T10:03:42.703Z,42.13
2023-02-24T10:07:07.946Z,38.97
2023-02-24T10:10:34.051Z,41.53
2023-02-24T10:13:49.940Z,41.85
2023-02-24T10:17:13.624Z,42.25
2023-02-24T10:20:39.690Z,40.65
2023-02-24T10:24:06.545Z,43.20
2023-02-24T10:27:31.286Z,45.07
2023-02-24T10:31:06.950Z,40.70
2023-02-24T10:34:13.209Z,38.67
2023-02-24T10:37:28.256Z,40.75
2023-02-24T10:40:53.754Z,41.23
2023-02-24T10:43:57.575Z,40.57
2023-02-24T10:47:11.851Z,36.53
2023-02-24T10:50:55.225Z,37.67
2023-02-24T10:54:34.681Z,33.35
2023-02-24T10:57:59.261Z,34.30
2023-02-24T11:01:22.470Z,33.57
2023-02-24T11:04:44.293Z,34.20
2023-02-24T11:07:54.115Z,29.15
2023-02-24T11:11:07.334Z,32.03
2023-02-24T11:14:35.597Z,35.67
2023-02-24T11:17:48.487Z,29.60
2023-02-24T11:21:06.178Z,33.72
2023-02-24T11:24:17.588Z,28.70
2023-02-24T11:27:23.527Z,31.15
2023-02-24T11:30:46.279Z,31.47
2023-02-24T11:34:07.912Z,31.73
2023-02-24T11:37:31.325Z,29.10
2023-02-24T11:40:44.072Z,32.88
2023-02-24T11:43:56.161Z,37.95
2023-02-24T11:47:02.854Z,40.27
2023-02-24T11:50:36.477Z,34.33
2023-02-24T11:53:44.556Z,42.92
2023-02-24T11:56:54.838Z,38.97
2023-02-24T12:00:20.257Z,35.55
2023-02-24T12:03:51.346Z,42.53
2023-02-24T12:07:05.774Z,37.20
2023-02-24T12:10:25.451Z,37.25
2023-02-24T12:13:36.747Z,40.67
2023-02-24T12:16:45.953Z,36.33
2023-02-24T12:20:05.921Z,40.17
2023-02-24T12:23:18.552Z,35.00
2023-02-24T12:26:42.855Z,38.53
2023-02-24T12:30:34.404Z,38.42
2023-02-24T12:33:58.214Z,40.25
2023-02-24T12:37:16.856Z,33.80
2023-02-24T12:40:39.238Z,31.23
2023-02-24T12:43:51.012Z,36.63
2023-02-24T12:47:15.686Z,33.05
2023-02-24T12:51:15.872Z,39.35
2023-02-24T12:54:29.846Z,31.97
2023-02-24T12:57:37.240Z,35.43
2023-02-24T13:00:51.779Z,34.08
2023-02-24T13:04:04.471Z,31.60
2023-02-24T13:07:22.253Z,32.53
2023-02-24T13:10:38.678Z,31.40
2023-02-24T13:13:46.557Z,30.37
2023-02-24T13:16:50.035Z,33.65
2023-02-24T13:19:56.193Z,30.55
2023-02-24T13:23:03.697Z,30.02
2023-02-24T13:26:06.390Z,28.97
2023-02-24T13:29:14.436Z,35.77
2023-02-24T13:32:25.930Z,28.92
2023-02-24T13:35:36.622Z,26.85
2023-02-24T13:38:45.629Z,30.20
2023-02-24T13:41:50.560Z,29.80
2023-02-24T13:45:11.105Z,30.47
2023-02-24T13:48:59.967Z,30.75
2023-02-24T13:52:14.018Z,28.23
2023-02-24T13:55:29.554Z,26.17
2023-02-24T13:58:46.668Z,26.30
2023-02-24T14:01:59.370Z,26.63
2023-02-24T14:05:08.535Z,30.63
2023-02-24T14:08:28.046Z,28.58
2023-02-24T14:11:37.773Z,22.40
2023-02-24T14:14:43.732Z,24.90
2023-02-24T14:17:56.113Z,26.03
2023-02-24T14:20:58.928Z,20.48
2023-02-24T14:24:05.406Z,21.23
2023-02-24T14:27:26.155Z,21.33
2023-02-24T14:30:38.235Z,22.07
2023-02-24T14:33:42.722Z,21.33
2023-02-24T14:36:45.924Z,19.77
2023-02-24T14:39:58.169Z,22.17
2023-02-24T14:43:00.872Z,23.45
2023-02-24T14:46:06.123Z,23.57
2023-02-24T14:49:17.644Z,17.20
2023-02-24T14:52:34.792Z,16.95
2023-02-24T14:55:40.587Z,21.00
2023-02-24T14:58:48.899Z,20.52
2023-02-24T15:01:55.094Z,25.07
2023-02-24T15:04:58.556Z,18.13
2023-02-24T15:08:02.265Z,15.98
2023-02-24T15:11:16.505Z,21.13
2023-02-24T15:14:29.279Z,24.15
2023-02-24T15:17:32.075Z,19.57
2023-02-24T15:20:37.947Z,29.17
2023-02-24T15:23:40.629Z,20.05
2023-02-24T15:26:50.888Z,15.00
2023-02-24T15:30:00.830Z,19.60
2023-02-24T15:33:20.603Z,20.60
2023-02-24T15:36:25.691Z,20.50
2023-02-24T15:39:31.285Z,32.90
2023-02-24T15:42:35.519Z,37.58
2023-02-24T15:45:39.647Z,18.33
2023-02-24T15:48:44.361Z,19.70
2023-02-24T15:51:51.583Z,39.20
2023-02-24T15:54:55.553Z,31.98
2023-02-24T15:58:01.007Z,26.10
2023-02-24T16:01:04.248Z,27.23
2023-02-24T16:04:09.627Z,23.67
2023-02-24T16:07:37.337Z,25.70
2023-02-24T16:10:40.323Z,33.45
2023-02-24T16:13:47.319Z,28.63
2023-02-24T16:16:51.685Z,85.55
2023-02-24T16:19:56.985Z,69.57
2023-02-24T16:23:02.179Z,31.40
2023-02-24T16:26:04.922Z,34.22
2023-02-24T16:29:12.276Z,21.75
2023-02-24T16:32:15.878Z,35.10
2023-02-24T16:35:18.825Z,22.53
2023-02-24T16:38:22.891Z,31.27
2023-02-24T16:41:25.485Z,54.45
2023-02-24T16:44:28.092Z,69.38
2023-02-24T16:47:33.849Z,59.45
2023-02-24T16:50:40.223Z,26.23
2023-02-24T16:53:43.484Z,18.17
2023-02-24T16:56:49.809Z,14.98
2023-02-24T16:59:52.533Z,31.50
2023-02-24T17:02:55.175Z,47.03
2023-02-24T17:05:57.974Z,34.83
2023-02-24T17:09:00.814Z,25.87
2023-02-24T17:12:03.583Z,30.95
2023-02-24T17:15:06.972Z,14.02
2023-02-24T17:18:11.380Z,13.05
2023-02-24T17:21:14.777Z,18.70
2023-02-24T17:24:19.418Z,14.00
2023-02-24T17:27:22.090Z,15.57
2023-02-24T17:30:28.374Z,17.70
2023-02-24T17:33:31.131Z,21.23
2023-02-24T17:36:33.984Z,17.67
2023-02-24T17:39:42.049Z,18.17
2023-02-24T17:42:45.170Z,19.23
2023-02-24T17:45:47.913Z,25.83
2023-02-24T17:48:50.510Z,29.00
2023-02-24T17:51:55.181Z,63.20
2023-02-24T17:54:58.283Z,41.67
2023-02-24T17:58:01.116Z,30.40
2023-02-24T18:01:06.232Z,23.67
2023-02-24T18:04:15.652Z,18.45
2023-02-24T18:07:21.468Z,17.03
2023-02-24T18:10:24.117Z,26.83
2023-02-24T18:13:28.178Z,22.17
2023-02-24T18:16:31.365Z,26.20
2023-02-24T18:19:35.123Z,22.90
2023-02-24T18:22:37.925Z,21.43
2023-02-24T18:25:42.790Z,24.23
2023-02-24T18:28:45.560Z,22.33
2023-02-24T18:31:48.474Z,17.63
2023-02-24T18:34:51.360Z,25.67
2023-02-24T18:37:56.798Z,30.20
2023-02-24T18:41:03.736Z,31.53
2023-02-24T18:44:07.185Z,33.83
2023-02-24T18:47:09.962Z,28.30
2023-02-24T18:50:14.046Z,30.02
2023-02-24T18:53:16.596Z,25.77
2023-02-24T18:56:24.918Z,26.87
2023-02-24T18:59:27.950Z,20.55
2023-02-24T19:02:31.193Z,21.38
2023-02-24T19:05:38.870Z,23.23
2023-02-24T19:08:42.490Z,24.10
2023-02-24T19:11:45.230Z,18.40
2023-02-24T19:14:52.555Z,18.25
2023-02-24T19:17:55.469Z,17.83
2023-02-24T19:20:58.124Z,20.13
2023-02-24T19:24:03.684Z,18.67
2023-02-24T19:27:06.725Z,24.53
2023-02-24T19:30:10.254Z,20.52
2023-02-24T19:33:13.057Z,19.52
2023-02-24T19:36:15.759Z,21.05
2023-02-24T19:39:21.139Z,27.33
2023-02-24T19:42:23.902Z,19.40
2023-02-24T19:45:26.483Z,25.13
2023-02-24T19:48:29.257Z,22.58
2023-02-24T19:51:32.449Z,18.15
2023-02-24T19:54:35.265Z,24.23
2023-02-24T19:57:38.014Z,30.93
2023-02-24T20:00:40.756Z,24.95
2023-02-24T20:03:43.648Z,28.00
2023-02-24T20:06:49.291Z,25.73
2023-02-24T20:09:54.264Z,27.90
2023-02-24T20:13:01.157Z,31.47
2023-02-24T20:16:09.783Z,23.25
2023-02-24T20:19:14.140Z,23.50
2023-02-24T20:22:17.987Z,25.75
2023-02-24T20:25:20.726Z,25.13
2023-02-24T20:28:24.181Z,31.03
2023-02-24T20:31:27.330Z,28.73
2023-02-24T20:34:30.099Z,23.85
2023-02-24T20:37:35.126Z,24.90
2023-02-24T20:40:38.042Z,24.03
2023-02-24T20:43:40.737Z,26.57
2023-02-24T20:46:43.688Z,24.58
2023-02-24T20:49:55.325Z,26.25
2023-02-24T20:52:58.065Z,23.63
2023-02-24T20:56:02.842Z,24.67
2023-02-24T20:59:08.156Z,24.87
2023-02-24T21:02:11.859Z,24.60
2023-02-24T21:05:23.357Z,23.30
2023-02-24T21:08:26.116Z,31.33
2023-02-24T21:11:30.331Z,24.03
2023-02-24T21:14:33.118Z,27.67
2023-02-24T21:17:35.819Z,23.05
2023-02-24T21:20:38.538Z,24.23
2023-02-24T21:23:42.610Z,26.70
2023-02-24T21:26:46.110Z,23.87
2023-02-24T21:29:48.791Z,22.80
2023-02-24T21:32:53.992Z,21.33
2023-02-24T21:36:03.305Z,24.77
2023-02-24T21:39:06.869Z,23.85
2023-02-24T21:42:14.226Z,23.90
2023-02-24T21:45:16.915Z,25.00
2023-02-24T21:48:20.090Z,27.02
2023-02-24T21:51:24.940Z,22.08
2023-02-24T21:54:27.994Z,29.63
2023-02-24T21:57:32.813Z,22.63
2023-02-24T22:00:35.892Z,23.87
2023-02-24T22:03:38.473Z,24.38
2023-02-24T22:06:41.976Z,21.17
2023-02-24T22:09:44.632Z,22.70
2023-02-24T22:12:50.942Z,23.03
2023-02-24T22:15:59.117Z,20.03
2023-02-24T22:19:01.895Z,20.80
2023-02-24T22:22:04.520Z,21.98
2023-02-24T22:25:08.107Z,22.13
2023-02-24T22:28:10.708Z,27.53
2023-02-24T22:31:18.168Z,22.60
2023-02-24T22:34:20.816Z,26.27
2023-02-24T22:37:23.984Z,19.58
2023-02-24T22:40:26.827Z,25.25
2023-02-24T22:43:29.928Z,21.57
2023-02-24T22:46:35.315Z,21.43
2023-02-24T22:49:38.032Z,19.63
2023-02-24T22:52:40.675Z,17.63
2023-02-24T22:55:47.328Z,18.55
2023-02-24T22:58:50.041Z,16.50
2023-02-24T23:01:54.585Z,17.67
2023-02-24T23:04:57.482Z,18.83
2023-02-24T23:08:03.438Z,15.15
2023-02-24T23:11:19.056Z,19.73
2023-02-24T23:14:21.646Z,15.07
2023-02-24T23:17:24.263Z,16.57
2023-02-24T23:20:26.787Z,15.98
2023-02-24T23:23:30.752Z,16.20
2023-02-24T23:26:35.872Z,15.00
2023-02-24T23:29:38.455Z,22.10
2023-02-24T23:32:45.958Z,17.90
2023-02-24T23:35:49.125Z,19.60
2023-02-24T23:38:51.987Z,17.20
2023-02-24T23:41:57.556Z,22.38
2023-02-24T23:45:00.351Z,20.23
2023-02-24T23:48:03.184Z,18.60
2023-02-24T23:51:08.372Z,16.60
2023-02-24T23:54:13.228Z,18.30
2023-02-24T23:57:19.249Z,22.05
